sensor_id;sensor_type;location;lat;lon;timestamp;P1;durP1;ratioP1;P2;durP2;ratioP2
15281;SDS011;7742;44.320;19.820;2024-03-25T00:00:22;15.60;;;14.73;;
15281;SDS011;7742;44.320;19.820;2024-03-25T00:02:50;16.03;;;15.13;;
15281;SDS011;7742;44.320;19.820;2024-03-25T00:05:16;17.67;;;16.67;;
15281;SDS011;7742;44.320;19.820;2024-03-25T00:07:48;16.10;;;15.20;;
15281;SDS011;7742;44.320;19.820;2024-03-25T00:10:15;16.77;;;15.77;;
15281;SDS011;7742;44.320;19.820;2024-03-25T00:12:42;16.77;;;15.77;;
15281;SDS011;7742;44.320;19.820;2024-03-25T00:15:09;17.57;;;16.57;;
15281;SDS011;7742;44.320;19.820;2024-03-25T00:17:39;17.53;;;16.53;;
15281;SDS011;7742;44.320;19.820;2024-03-25T00:20:05;17.93;;;16.83;;
15281;SDS011;7742;44.320;19.820;2024-03-25T00:22:36;18.17;;;17.07;;
15281;SDS011;7742;44.320;19.820;2024-03-25T00:25:02;17.10;;;16.10;;
15281;SDS011;7742;44.320;19.820;2024-03-25T00:27:39;17.07;;;16.17;;
15281;SDS011;7742;44.320;19.820;2024-03-25T00:33:33;17.27;;;16.27;;
15281;SDS011;7742;44.320;19.820;2024-03-25T00:35:58;17.07;;;16.07;;
15281;SDS011;7742;44.320;19.820;2024-03-25T00:38:25;16.07;;;15.07;;
15281;SDS011;7742;44.320;19.820;2024-03-25T00:40:51;17.23;;;16.23;;
15281;SDS011;7742;44.320;19.820;2024-03-25T00:43:18;17.27;;;16.17;;
15281;SDS011;7742;44.320;19.820;2024-03-25T00:45:45;17.53;;;16.33;;
15281;SDS011;7742;44.320;19.820;2024-03-25T00:48:12;18.10;;;16.80;;
15281;SDS011;7742;44.320;19.820;2024-03-25T00:50:39;18.07;;;16.80;;
15281;SDS011;7742;44.320;19.820;2024-03-25T00:53:06;18.00;;;16.90;;
15281;SDS011;7742;44.320;19.820;2024-03-25T00:55:33;17.37;;;16.27;;
15281;SDS011;7742;44.320;19.820;2024-03-25T00:58:02;17.43;;;16.33;;
15281;SDS011;7742;44.320;19.820;2024-03-25T01:00:28;16.30;;;15.30;;
15281;SDS011;7742;44.320;19.820;2024-03-25T01:02:55;16.17;;;15.27;;
15281;SDS011;7742;44.320;19.820;2024-03-25T01:05:21;16.73;;;15.73;;
15281;SDS011;7742;44.320;19.820;2024-03-25T01:07:49;16.37;;;15.37;;
15281;SDS011;7742;44.320;19.820;2024-03-25T01:10:15;16.67;;;15.67;;
15281;SDS011;7742;44.320;19.820;2024-03-25T01:12:42;17.80;;;16.70;;
15281;SDS011;7742;44.320;19.820;2024-03-25T01:15:08;18.20;;;16.90;;
15281;SDS011;7742;44.320;19.820;2024-03-25T01:17:37;18.90;;;17.60;;
15281;SDS011;7742;44.320;19.820;2024-03-25T01:20:03;17.93;;;16.77;;
15281;SDS011;7742;44.320;19.820;2024-03-25T01:22:30;15.37;;;14.40;;
15281;SDS011;7742;44.320;19.820;2024-03-25T01:24:58;16.80;;;15.80;;
15281;SDS011;7742;44.320;19.820;2024-03-25T01:27:25;18.03;;;16.83;;
15281;SDS011;7742;44.320;19.820;2024-03-25T01:29:50;14.23;;;13.33;;
15281;SDS011;7742;44.320;19.820;2024-03-25T01:32:17;16.20;;;15.30;;
15281;SDS011;7742;44.320;19.820;2024-03-25T01:34:44;16.57;;;15.57;;
15281;SDS011;7742;44.320;19.820;2024-03-25T01:37:10;14.80;;;14.00;;
15281;SDS011;7742;44.320;19.820;2024-03-25T01:39:36;16.10;;;15.17;;
15281;SDS011;7742;44.320;19.820;2024-03-25T01:42:05;14.27;;;13.37;;
15281;SDS011;7742;44.320;19.820;2024-03-25T01:44:31;14.63;;;13.73;;
15281;SDS011;7742;44.320;19.820;2024-03-25T01:46:58;14.70;;;13.90;;
15281;SDS011;7742;44.320;19.820;2024-03-25T01:49:24;15.40;;;14.60;;
15281;SDS011;7742;44.320;19.820;2024-03-25T01:51:51;15.17;;;14.37;;
15281;SDS011;7742;44.320;19.820;2024-03-25T01:54:17;14.33;;;13.53;;
15281;SDS011;7742;44.320;19.820;2024-03-25T01:56:44;15.00;;;14.07;;
15281;SDS011;7742;44.320;19.820;2024-03-25T01:59:13;15.00;;;14.20;;
15281;SDS011;7742;44.320;19.820;2024-03-25T02:01:42;15.13;;;14.23;;
15281;SDS011;7742;44.320;19.820;2024-03-25T02:04:08;14.30;;;13.50;;
15281;SDS011;7742;44.320;19.820;2024-03-25T02:06:35;14.57;;;13.80;;
15281;SDS011;7742;44.320;19.820;2024-03-25T02:09:02;14.97;;;14.10;;
15281;SDS011;7742;44.320;19.820;2024-03-25T02:11:30;15.23;;;14.33;;
15281;SDS011;7742;44.320;19.820;2024-03-25T02:13:56;14.03;;;13.23;;
15281;SDS011;7742;44.320;19.820;2024-03-25T02:16:24;15.00;;;14.20;;
15281;SDS011;7742;44.320;19.820;2024-03-25T02:18:50;16.53;;;15.43;;
15281;SDS011;7742;44.320;19.820;2024-03-25T02:21:17;17.40;;;16.33;;
15281;SDS011;7742;44.320;19.820;2024-03-25T02:23:43;15.87;;;14.87;;
15281;SDS011;7742;44.320;19.820;2024-03-25T02:26:13;15.90;;;14.90;;
15281;SDS011;7742;44.320;19.820;2024-03-25T02:28:38;15.67;;;14.67;;
15281;SDS011;7742;44.320;19.820;2024-03-25T02:31:05;14.90;;;14.00;;
15281;SDS011;7742;44.320;19.820;2024-03-25T02:33:31;15.97;;;14.87;;
15281;SDS011;7742;44.320;19.820;2024-03-25T02:35:58;15.80;;;14.80;;
15281;SDS011;7742;44.320;19.820;2024-03-25T02:38:24;16.00;;;15.10;;
15281;SDS011;7742;44.320;19.820;2024-03-25T02:40:51;14.40;;;13.50;;
15281;SDS011;7742;44.320;19.820;2024-03-25T02:43:19;15.77;;;14.77;;
15281;SDS011;7742;44.320;19.820;2024-03-25T02:45:47;15.40;;;14.40;;
15281;SDS011;7742;44.320;19.820;2024-03-25T02:48:13;16.47;;;15.30;;
15281;SDS011;7742;44.320;19.820;2024-03-25T02:50:40;17.50;;;16.40;;
15281;SDS011;7742;44.320;19.820;2024-03-25T02:53:06;15.03;;;14.03;;
15281;SDS011;7742;44.320;19.820;2024-03-25T02:55:33;15.80;;;14.87;;
15281;SDS011;7742;44.320;19.820;2024-03-25T02:57:59;16.03;;;15.03;;
15281;SDS011;7742;44.320;19.820;2024-03-25T03:00:28;16.30;;;15.30;;
15281;SDS011;7742;44.320;19.820;2024-03-25T03:02:53;15.50;;;14.60;;
15281;SDS011;7742;44.320;19.820;2024-03-25T03:05:20;15.53;;;14.63;;
15281;SDS011;7742;44.320;19.820;2024-03-25T03:07:46;16.37;;;15.30;;
15281;SDS011;7742;44.320;19.820;2024-03-25T03:10:22;15.60;;;14.60;;
15281;SDS011;7742;44.320;19.820;2024-03-25T03:12:48;15.20;;;14.33;;
15281;SDS011;7742;44.320;19.820;2024-03-25T03:15:15;14.70;;;13.90;;
15281;SDS011;7742;44.320;19.820;2024-03-25T03:17:42;16.10;;;15.20;;
15281;SDS011;7742;44.320;19.820;2024-03-25T03:20:10;15.77;;;14.77;;
15281;SDS011;7742;44.320;19.820;2024-03-25T03:22:36;14.53;;;13.73;;
15281;SDS011;7742;44.320;19.820;2024-03-25T03:25:03;16.53;;;15.43;;
15281;SDS011;7742;44.320;19.820;2024-03-25T03:27:29;16.77;;;15.63;;
15281;SDS011;7742;44.320;19.820;2024-03-25T03:29:57;17.07;;;16.07;;
15281;SDS011;7742;44.320;19.820;2024-03-25T03:32:23;18.40;;;17.33;;
15281;SDS011;7742;44.320;19.820;2024-03-25T03:34:51;16.43;;;15.43;;
15281;SDS011;7742;44.320;19.820;2024-03-25T03:37:18;17.37;;;16.27;;
15281;SDS011;7742;44.320;19.820;2024-03-25T03:39:45;14.47;;;13.67;;
15281;SDS011;7742;44.320;19.820;2024-03-25T03:42:10;15.67;;;14.77;;
15281;SDS011;7742;44.320;19.820;2024-03-25T03:44:37;16.73;;;15.73;;
15281;SDS011;7742;44.320;19.820;2024-03-25T03:47:03;15.63;;;14.63;;
15281;SDS011;7742;44.320;19.820;2024-03-25T03:49:30;15.87;;;14.87;;
15281;SDS011;7742;44.320;19.820;2024-03-25T03:51:58;16.20;;;15.20;;
15281;SDS011;7742;44.320;19.820;2024-03-25T03:54:25;16.23;;;15.23;;
15281;SDS011;7742;44.320;19.820;2024-03-25T03:56:50;15.67;;;14.67;;
15281;SDS011;7742;44.320;19.820;2024-03-25T03:59:17;17.00;;;16.00;;
15281;SDS011;7742;44.320;19.820;2024-03-25T04:01:43;17.17;;;16.17;;
15281;SDS011;7742;44.320;19.820;2024-03-25T04:04:10;15.03;;;14.13;;
15281;SDS011;7742;44.320;19.820;2024-03-25T04:06:36;15.93;;;15.00;;
15281;SDS011;7742;44.320;19.820;2024-03-25T04:09:06;15.90;;;14.93;;
15281;SDS011;7742;44.320;19.820;2024-03-25T04:11:35;16.30;;;15.33;;
15281;SDS011;7742;44.320;19.820;2024-03-25T04:14:02;15.50;;;14.50;;
15281;SDS011;7742;44.320;19.820;2024-03-25T04:16:38;16.40;;;15.40;;
15281;SDS011;7742;44.320;19.820;2024-03-25T04:19:11;15.30;;;14.30;;
15281;SDS011;7742;44.320;19.820;2024-03-25T04:21:37;16.67;;;15.67;;
15281;SDS011;7742;44.320;19.820;2024-03-25T04:24:04;17.07;;;15.97;;
15281;SDS011;7742;44.320;19.820;2024-03-25T04:26:32;16.70;;;15.70;;
15281;SDS011;7742;44.320;19.820;2024-03-25T04:28:59;16.43;;;15.40;;
15281;SDS011;7742;44.320;19.820;2024-03-25T04:31:25;15.63;;;14.73;;
15281;SDS011;7742;44.320;19.820;2024-03-25T04:33:52;17.60;;;16.50;;
15281;SDS011;7742;44.320;19.820;2024-03-25T04:36:18;16.73;;;15.70;;
15281;SDS011;7742;44.320;19.820;2024-03-25T04:38:45;17.67;;;16.67;;
15281;SDS011;7742;44.320;19.820;2024-03-25T04:41:10;17.40;;;16.23;;
15281;SDS011;7742;44.320;19.820;2024-03-25T04:43:38;17.20;;;16.00;;
15281;SDS011;7742;44.320;19.820;2024-03-25T04:46:03;16.27;;;15.07;;
15281;SDS011;7742;44.320;19.820;2024-03-25T04:48:29;19.70;;;18.47;;
15281;SDS011;7742;44.320;19.820;2024-03-25T04:50:55;18.50;;;17.20;;
15281;SDS011;7742;44.320;19.820;2024-03-25T04:53:21;17.90;;;16.60;;
15281;SDS011;7742;44.320;19.820;2024-03-25T04:55:47;15.10;;;14.10;;
15281;SDS011;7742;44.320;19.820;2024-03-25T04:58:12;18.43;;;16.93;;
15281;SDS011;7742;44.320;19.820;2024-03-25T05:00:40;17.23;;;16.03;;
15281;SDS011;7742;44.320;19.820;2024-03-25T05:03:05;17.50;;;16.47;;
15281;SDS011;7742;44.320;19.820;2024-03-25T05:05:31;17.83;;;16.73;;
15281;SDS011;7742;44.320;19.820;2024-03-25T05:07:57;16.40;;;15.30;;
15281;SDS011;7742;44.320;19.820;2024-03-25T05:10:22;15.67;;;14.67;;
15281;SDS011;7742;44.320;19.820;2024-03-25T05:12:48;16.40;;;15.37;;
15281;SDS011;7742;44.320;19.820;2024-03-25T05:15:14;16.73;;;15.67;;
15281;SDS011;7742;44.320;19.820;2024-03-25T05:17:42;16.50;;;15.40;;
15281;SDS011;7742;44.320;19.820;2024-03-25T05:20:08;15.23;;;14.33;;
15281;SDS011;7742;44.320;19.820;2024-03-25T05:22:34;15.10;;;14.20;;
15281;SDS011;7742;44.320;19.820;2024-03-25T05:25:00;13.67;;;12.87;;
15281;SDS011;7742;44.320;19.820;2024-03-25T05:27:25;14.27;;;13.47;;
15281;SDS011;7742;44.320;19.820;2024-03-25T05:29:51;15.43;;;14.43;;
15281;SDS011;7742;44.320;19.820;2024-03-25T05:32:17;16.37;;;15.27;;
15281;SDS011;7742;44.320;19.820;2024-03-25T05:34:44;12.97;;;12.17;;
15281;SDS011;7742;44.320;19.820;2024-03-25T05:37:10;13.83;;;12.83;;
15281;SDS011;7742;44.320;19.820;2024-03-25T05:39:36;14.47;;;13.57;;
15281;SDS011;7742;44.320;19.820;2024-03-25T05:42:01;15.03;;;13.90;;
15281;SDS011;7742;44.320;19.820;2024-03-25T05:44:27;14.50;;;13.50;;
15281;SDS011;7742;44.320;19.820;2024-03-25T05:46:53;15.03;;;13.97;;
15281;SDS011;7742;44.320;19.820;2024-03-25T05:49:19;15.33;;;14.33;;
15281;SDS011;7742;44.320;19.820;2024-03-25T05:51:46;14.87;;;13.90;;
15281;SDS011;7742;44.320;19.820;2024-03-25T05:54:12;15.57;;;14.40;;
15281;SDS011;7742;44.320;19.820;2024-03-25T05:56:38;16.23;;;15.23;;
15281;SDS011;7742;44.320;19.820;2024-03-25T05:59:03;16.00;;;15.00;;
15281;SDS011;7742;44.320;19.820;2024-03-25T06:01:29;16.00;;;15.07;;
15281;SDS011;7742;44.320;19.820;2024-03-25T06:03:55;14.17;;;13.27;;
15281;SDS011;7742;44.320;19.820;2024-03-25T06:06:21;14.23;;;13.33;;
15281;SDS011;7742;44.320;19.820;2024-03-25T06:08:48;14.37;;;13.47;;
15281;SDS011;7742;44.320;19.820;2024-03-25T06:11:13;14.17;;;13.37;;
15281;SDS011;7742;44.320;19.820;2024-03-25T06:13:39;15.30;;;14.37;;
15281;SDS011;7742;44.320;19.820;2024-03-25T06:16:05;14.07;;;13.20;;
15281;SDS011;7742;44.320;19.820;2024-03-25T06:18:31;16.67;;;15.67;;
15281;SDS011;7742;44.320;19.820;2024-03-25T06:20:57;15.63;;;14.67;;
15281;SDS011;7742;44.320;19.820;2024-03-25T06:23:23;13.47;;;12.57;;
15281;SDS011;7742;44.320;19.820;2024-03-25T06:25:51;12.67;;;11.93;;
15281;SDS011;7742;44.320;19.820;2024-03-25T06:28:17;13.10;;;12.30;;
15281;SDS011;7742;44.320;19.820;2024-03-25T06:30:43;11.63;;;10.93;;
15281;SDS011;7742;44.320;19.820;2024-03-25T06:33:27;11.93;;;11.33;;
15281;SDS011;7742;44.320;19.820;2024-03-25T06:36:11;11.20;;;10.60;;
15281;SDS011;7742;44.320;19.820;2024-03-25T06:38:36;12.33;;;11.63;;
15281;SDS011;7742;44.320;19.820;2024-03-25T06:41:04;13.33;;;12.63;;
15281;SDS011;7742;44.320;19.820;2024-03-25T06:43:29;13.03;;;12.33;;
15281;SDS011;7742;44.320;19.820;2024-03-25T06:45:55;14.00;;;13.20;;
15281;SDS011;7742;44.320;19.820;2024-03-25T06:48:21;13.27;;;12.57;;
15281;SDS011;7742;44.320;19.820;2024-03-25T06:50:53;13.67;;;12.97;;
15281;SDS011;7742;44.320;19.820;2024-03-25T06:53:19;12.80;;;12.10;;
15281;SDS011;7742;44.320;19.820;2024-03-25T06:55:50;14.17;;;13.27;;
15281;SDS011;7742;44.320;19.820;2024-03-25T06:58:18;12.70;;;12.10;;
15281;SDS011;7742;44.320;19.820;2024-03-25T07:00:44;12.63;;;11.93;;
15281;SDS011;7742;44.320;19.820;2024-03-25T07:03:09;12.63;;;11.93;;
15281;SDS011;7742;44.320;19.820;2024-03-25T07:05:35;13.17;;;12.47;;
15281;SDS011;7742;44.320;19.820;2024-03-25T07:08:01;12.90;;;12.20;;
15281;SDS011;7742;44.320;19.820;2024-03-25T07:10:27;12.10;;;11.50;;
15281;SDS011;7742;44.320;19.820;2024-03-25T07:12:52;12.90;;;12.30;;
15281;SDS011;7742;44.320;19.820;2024-03-25T07:15:20;12.73;;;12.10;;
15281;SDS011;7742;44.320;19.820;2024-03-25T07:17:45;12.87;;;12.27;;
15281;SDS011;7742;44.320;19.820;2024-03-25T07:20:11;12.60;;;11.90;;
15281;SDS011;7742;44.320;19.820;2024-03-25T07:22:37;11.10;;;10.50;;
15281;SDS011;7742;44.320;19.820;2024-03-25T07:25:03;10.13;;;9.73;;
15281;SDS011;7742;44.320;19.820;2024-03-25T07:27:29;12.10;;;11.50;;
15281;SDS011;7742;44.320;19.820;2024-03-25T07:29:54;11.70;;;11.10;;
15281;SDS011;7742;44.320;19.820;2024-03-25T07:32:22;11.77;;;11.17;;
15281;SDS011;7742;44.320;19.820;2024-03-25T07:34:47;10.33;;;9.83;;
15281;SDS011;7742;44.320;19.820;2024-03-25T07:37:13;10.10;;;9.70;;
15281;SDS011;7742;44.320;19.820;2024-03-25T07:39:39;12.00;;;11.50;;
15281;SDS011;7742;44.320;19.820;2024-03-25T07:42:05;9.67;;;9.17;;
15281;SDS011;7742;44.320;19.820;2024-03-25T07:44:30;11.30;;;10.80;;
15281;SDS011;7742;44.320;19.820;2024-03-25T07:46:56;11.03;;;10.50;;
15281;SDS011;7742;44.320;19.820;2024-03-25T07:49:23;11.63;;;11.07;;
15281;SDS011;7742;44.320;19.820;2024-03-25T07:51:49;11.73;;;11.23;;
15281;SDS011;7742;44.320;19.820;2024-03-25T07:54:15;11.70;;;11.20;;
15281;SDS011;7742;44.320;19.820;2024-03-25T07:56:41;11.53;;;11.03;;
15281;SDS011;7742;44.320;19.820;2024-03-25T07:59:06;10.73;;;10.23;;
15281;SDS011;7742;44.320;19.820;2024-03-25T08:01:32;8.77;;;8.40;;
15281;SDS011;7742;44.320;19.820;2024-03-25T08:03:58;9.50;;;9.10;;
15281;SDS011;7742;44.320;19.820;2024-03-25T08:06:25;9.30;;;8.90;;
15281;SDS011;7742;44.320;19.820;2024-03-25T08:08:51;9.03;;;8.63;;
15281;SDS011;7742;44.320;19.820;2024-03-25T08:11:17;10.57;;;10.07;;
15281;SDS011;7742;44.320;19.820;2024-03-25T08:13:42;10.07;;;9.67;;
15281;SDS011;7742;44.320;19.820;2024-03-25T08:16:08;10.83;;;10.30;;
15281;SDS011;7742;44.320;19.820;2024-03-25T08:18:34;8.90;;;8.50;;
15281;SDS011;7742;44.320;19.820;2024-03-25T08:21:00;11.00;;;10.60;;
15281;SDS011;7742;44.320;19.820;2024-03-25T08:23:27;11.63;;;11.13;;
15281;SDS011;7742;44.320;19.820;2024-03-25T08:25:53;10.50;;;10.10;;
15281;SDS011;7742;44.320;19.820;2024-03-25T08:28:18;9.83;;;9.33;;
15281;SDS011;7742;44.320;19.820;2024-03-25T08:30:44;10.70;;;10.30;;
15281;SDS011;7742;44.320;19.820;2024-03-25T08:33:10;10.33;;;9.93;;
15281;SDS011;7742;44.320;19.820;2024-03-25T08:35:36;11.60;;;11.10;;
15281;SDS011;7742;44.320;19.820;2024-03-25T08:38:03;11.27;;;10.67;;
15281;SDS011;7742;44.320;19.820;2024-03-25T08:40:30;10.60;;;10.20;;
15281;SDS011;7742;44.320;19.820;2024-03-25T08:42:56;11.43;;;10.97;;
15281;SDS011;7742;44.320;19.820;2024-03-25T08:45:22;11.40;;;11.00;;
15281;SDS011;7742;44.320;19.820;2024-03-25T08:47:47;10.43;;;9.93;;
15281;SDS011;7742;44.320;19.820;2024-03-25T08:50:13;10.70;;;10.30;;
15281;SDS011;7742;44.320;19.820;2024-03-25T08:52:39;9.20;;;8.70;;
15281;SDS011;7742;44.320;19.820;2024-03-25T08:55:05;10.37;;;9.87;;
15281;SDS011;7742;44.320;19.820;2024-03-25T08:57:32;8.80;;;8.43;;
15281;SDS011;7742;44.320;19.820;2024-03-25T08:59:58;9.93;;;9.30;;
15281;SDS011;7742;44.320;19.820;2024-03-25T09:02:24;8.97;;;8.67;;
15281;SDS011;7742;44.320;19.820;2024-03-25T09:04:50;11.63;;;10.87;;
15281;SDS011;7742;44.320;19.820;2024-03-25T09:07:15;10.30;;;9.83;;
15281;SDS011;7742;44.320;19.820;2024-03-25T09:09:41;9.50;;;9.10;;
15281;SDS011;7742;44.320;19.820;2024-03-25T09:12:25;10.60;;;10.20;;
15281;SDS011;7742;44.320;19.820;2024-03-25T09:14:52;11.37;;;10.97;;
15281;SDS011;7742;44.320;19.820;2024-03-25T09:17:18;11.70;;;11.20;;
15281;SDS011;7742;44.320;19.820;2024-03-25T09:19:44;10.47;;;10.07;;
15281;SDS011;7742;44.320;19.820;2024-03-25T09:22:10;11.13;;;10.50;;
15281;SDS011;7742;44.320;19.820;2024-03-25T09:24:36;9.90;;;9.40;;
15281;SDS011;7742;44.320;19.820;2024-03-25T09:27:01;10.70;;;10.30;;
15281;SDS011;7742;44.320;19.820;2024-03-25T09:29:27;11.30;;;10.80;;
15281;SDS011;7742;44.320;19.820;2024-03-25T09:31:54;11.50;;;11.00;;
15281;SDS011;7742;44.320;19.820;2024-03-25T09:34:20;12.40;;;11.53;;
15281;SDS011;7742;44.320;19.820;2024-03-25T09:36:46;11.67;;;11.17;;
15281;SDS011;7742;44.320;19.820;2024-03-25T09:39:12;11.10;;;10.70;;
15281;SDS011;7742;44.320;19.820;2024-03-25T09:41:37;11.50;;;11.00;;
15281;SDS011;7742;44.320;19.820;2024-03-25T09:44:05;9.97;;;9.50;;
15281;SDS011;7742;44.320;19.820;2024-03-25T09:46:31;9.97;;;9.57;;
15281;SDS011;7742;44.320;19.820;2024-03-25T09:48:59;8.80;;;8.50;;
15281;SDS011;7742;44.320;19.820;2024-03-25T09:51:24;10.03;;;9.63;;
15281;SDS011;7742;44.320;19.820;2024-03-25T09:53:50;9.07;;;8.67;;
15281;SDS011;7742;44.320;19.820;2024-03-25T09:56:16;10.20;;;9.80;;
15281;SDS011;7742;44.320;19.820;2024-03-25T09:58:42;10.20;;;9.80;;
15281;SDS011;7742;44.320;19.820;2024-03-25T10:01:09;8.30;;;8.00;;
15281;SDS011;7742;44.320;19.820;2024-03-25T10:03:35;10.50;;;10.10;;
15281;SDS011;7742;44.320;19.820;2024-03-25T10:06:02;9.87;;;9.47;;
15281;SDS011;7742;44.320;19.820;2024-03-25T10:08:28;10.60;;;10.10;;
15281;SDS011;7742;44.320;19.820;2024-03-25T10:10:54;10.13;;;9.73;;
15281;SDS011;7742;44.320;19.820;2024-03-25T10:13:20;10.70;;;10.20;;
15281;SDS011;7742;44.320;19.820;2024-03-25T10:15:47;9.97;;;9.57;;
15281;SDS011;7742;44.320;19.820;2024-03-25T10:18:12;10.60;;;10.20;;
15281;SDS011;7742;44.320;19.820;2024-03-25T10:20:38;11.17;;;10.70;;
15281;SDS011;7742;44.320;19.820;2024-03-25T10:23:14;10.57;;;10.17;;
15281;SDS011;7742;44.320;19.820;2024-03-25T10:25:39;10.20;;;9.80;;
15281;SDS011;7742;44.320;19.820;2024-03-25T10:28:05;11.27;;;10.37;;
15281;SDS011;7742;44.320;19.820;2024-03-25T10:30:31;10.70;;;10.20;;
15281;SDS011;7742;44.320;19.820;2024-03-25T10:32:57;11.20;;;10.80;;
15281;SDS011;7742;44.320;19.820;2024-03-25T10:35:24;10.03;;;9.63;;
15281;SDS011;7742;44.320;19.820;2024-03-25T10:37:50;8.70;;;8.30;;
15281;SDS011;7742;44.320;19.820;2024-03-25T10:40:17;8.30;;;7.80;;
15281;SDS011;7742;44.320;19.820;2024-03-25T10:42:43;10.13;;;9.73;;
15281;SDS011;7742;44.320;19.820;2024-03-25T10:45:11;9.20;;;8.90;;
15281;SDS011;7742;44.320;19.820;2024-03-25T10:47:37;9.40;;;9.10;;
15281;SDS011;7742;44.320;19.820;2024-03-25T10:50:04;8.63;;;8.33;;
15281;SDS011;7742;44.320;19.820;2024-03-25T10:52:33;8.17;;;7.87;;
15281;SDS011;7742;44.320;19.820;2024-03-25T10:54:59;8.00;;;7.70;;
15281;SDS011;7742;44.320;19.820;2024-03-25T10:57:26;8.63;;;8.33;;
15281;SDS011;7742;44.320;19.820;2024-03-25T10:59:53;8.07;;;7.77;;
15281;SDS011;7742;44.320;19.820;2024-03-25T11:02:21;7.70;;;7.40;;
15281;SDS011;7742;44.320;19.820;2024-03-25T11:04:47;8.30;;;8.00;;
15281;SDS011;7742;44.320;19.820;2024-03-25T11:07:13;8.77;;;8.47;;
15281;SDS011;7742;44.320;19.820;2024-03-25T11:09:39;9.60;;;9.20;;
15281;SDS011;7742;44.320;19.820;2024-03-25T11:12:06;10.60;;;10.20;;
15281;SDS011;7742;44.320;19.820;2024-03-25T11:14:33;8.37;;;8.07;;
15281;SDS011;7742;44.320;19.820;2024-03-25T11:16:59;8.60;;;8.30;;
15281;SDS011;7742;44.320;19.820;2024-03-25T11:19:25;10.83;;;10.33;;
15281;SDS011;7742;44.320;19.820;2024-03-25T11:21:51;11.20;;;10.70;;
15281;SDS011;7742;44.320;19.820;2024-03-25T11:24:26;11.13;;;10.63;;
15281;SDS011;7742;44.320;19.820;2024-03-25T11:26:52;11.57;;;11.17;;
15281;SDS011;7742;44.320;19.820;2024-03-25T11:29:18;9.40;;;9.10;;
15281;SDS011;7742;44.320;19.820;2024-03-25T11:31:45;10.77;;;10.37;;
15281;SDS011;7742;44.320;19.820;2024-03-25T11:34:14;10.47;;;10.07;;
15281;SDS011;7742;44.320;19.820;2024-03-25T11:36:39;9.20;;;8.80;;
15281;SDS011;7742;44.320;19.820;2024-03-25T11:39:05;8.53;;;8.23;;
15281;SDS011;7742;44.320;19.820;2024-03-25T11:41:32;8.30;;;8.00;;
15281;SDS011;7742;44.320;19.820;2024-03-25T11:43:58;10.57;;;10.17;;
15281;SDS011;7742;44.320;19.820;2024-03-25T11:46:24;9.00;;;8.60;;
15281;SDS011;7742;44.320;19.820;2024-03-25T11:48:51;9.73;;;9.43;;
15281;SDS011;7742;44.320;19.820;2024-03-25T11:51:18;10.97;;;10.57;;
15281;SDS011;7742;44.320;19.820;2024-03-25T11:53:43;11.00;;;10.60;;
15281;SDS011;7742;44.320;19.820;2024-03-25T11:56:10;8.00;;;7.70;;
15281;SDS011;7742;44.320;19.820;2024-03-25T11:58:36;8.97;;;8.37;;
15281;SDS011;7742;44.320;19.820;2024-03-25T12:01:02;8.80;;;8.50;;
15281;SDS011;7742;44.320;19.820;2024-03-25T12:03:28;9.10;;;8.80;;
15281;SDS011;7742;44.320;19.820;2024-03-25T12:05:56;9.33;;;9.03;;
15281;SDS011;7742;44.320;19.820;2024-03-25T12:08:22;7.40;;;7.20;;
15281;SDS011;7742;44.320;19.820;2024-03-25T12:10:48;9.90;;;9.60;;
15281;SDS011;7742;44.320;19.820;2024-03-25T12:13:32;10.60;;;10.20;;
15281;SDS011;7742;44.320;19.820;2024-03-25T12:15:58;11.03;;;10.63;;
15281;SDS011;7742;44.320;19.820;2024-03-25T12:18:24;10.70;;;10.30;;
15281;SDS011;7742;44.320;19.820;2024-03-25T12:20:50;9.10;;;8.80;;
15281;SDS011;7742;44.320;19.820;2024-03-25T12:23:17;10.50;;;10.10;;
15281;SDS011;7742;44.320;19.820;2024-03-25T12:25:47;10.63;;;10.23;;
15281;SDS011;7742;44.320;19.820;2024-03-25T12:28:13;11.13;;;10.73;;
15281;SDS011;7742;44.320;19.820;2024-03-25T12:30:41;10.00;;;9.70;;
15281;SDS011;7742;44.320;19.820;2024-03-25T12:33:14;10.70;;;10.30;;
15281;SDS011;7742;44.320;19.820;2024-03-25T12:35:39;8.43;;;8.13;;
15281;SDS011;7742;44.320;19.820;2024-03-25T12:38:05;9.57;;;9.27;;
15281;SDS011;7742;44.320;19.820;2024-03-25T12:40:33;11.40;;;11.00;;
15281;SDS011;7742;44.320;19.820;2024-03-25T12:42:58;10.67;;;10.17;;
15281;SDS011;7742;44.320;19.820;2024-03-25T12:45:24;11.03;;;10.63;;
15281;SDS011;7742;44.320;19.820;2024-03-25T12:47:50;10.47;;;10.07;;
15281;SDS011;7742;44.320;19.820;2024-03-25T12:50:16;11.00;;;10.60;;
15281;SDS011;7742;44.320;19.820;2024-03-25T12:52:41;11.50;;;11.00;;
15281;SDS011;7742;44.320;19.820;2024-03-25T12:55:07;9.63;;;9.33;;
15281;SDS011;7742;44.320;19.820;2024-03-25T12:57:35;10.57;;;10.17;;
15281;SDS011;7742;44.320;19.820;2024-03-25T13:00:00;9.10;;;8.80;;
15281;SDS011;7742;44.320;19.820;2024-03-25T13:02:26;9.83;;;9.43;;
15281;SDS011;7742;44.320;19.820;2024-03-25T13:04:52;9.40;;;9.10;;
15281;SDS011;7742;44.320;19.820;2024-03-25T13:07:18;10.60;;;10.20;;
15281;SDS011;7742;44.320;19.820;2024-03-25T13:09:44;8.90;;;8.60;;
15281;SDS011;7742;44.320;19.820;2024-03-25T13:12:09;11.00;;;10.50;;
15281;SDS011;7742;44.320;19.820;2024-03-25T13:14:43;10.17;;;9.77;;
15281;SDS011;7742;44.320;19.820;2024-03-25T13:17:09;9.17;;;8.77;;
15281;SDS011;7742;44.320;19.820;2024-03-25T13:19:35;10.83;;;10.33;;
15281;SDS011;7742;44.320;19.820;2024-03-25T13:22:00;9.07;;;8.77;;
15281;SDS011;7742;44.320;19.820;2024-03-25T13:24:26;9.00;;;8.60;;
15281;SDS011;7742;44.320;19.820;2024-03-25T13:26:52;8.17;;;7.77;;
15281;SDS011;7742;44.320;19.820;2024-03-25T13:29:18;8.80;;;8.50;;
15281;SDS011;7742;44.320;19.820;2024-03-25T13:31:45;9.53;;;9.13;;
15281;SDS011;7742;44.320;19.820;2024-03-25T13:34:11;9.20;;;8.87;;
15281;SDS011;7742;44.320;19.820;2024-03-25T13:36:36;11.13;;;10.53;;
15281;SDS011;7742;44.320;19.820;2024-03-25T13:39:02;9.00;;;8.60;;
15281;SDS011;7742;44.320;19.820;2024-03-25T13:41:28;8.73;;;8.43;;
15281;SDS011;7742;44.320;19.820;2024-03-25T13:43:54;10.10;;;9.60;;
15281;SDS011;7742;44.320;19.820;2024-03-25T13:46:19;9.67;;;9.27;;
15281;SDS011;7742;44.320;19.820;2024-03-25T13:48:47;9.43;;;9.03;;
15281;SDS011;7742;44.320;19.820;2024-03-25T13:51:13;104.43;;;32.30;;
15281;SDS011;7742;44.320;19.820;2024-03-25T13:53:39;11.57;;;10.97;;
15281;SDS011;7742;44.320;19.820;2024-03-25T13:56:05;10.03;;;9.63;;
15281;SDS011;7742;44.320;19.820;2024-03-25T13:58:31;10.40;;;9.90;;
15281;SDS011;7742;44.320;19.820;2024-03-25T14:00:57;93.07;;;36.00;;
15281;SDS011;7742;44.320;19.820;2024-03-25T14:03:22;13.23;;;11.60;;
15281;SDS011;7742;44.320;19.820;2024-03-25T14:05:50;8.73;;;8.43;;
15281;SDS011;7742;44.320;19.820;2024-03-25T14:08:15;7.73;;;7.33;;
15281;SDS011;7742;44.320;19.820;2024-03-25T14:10:42;10.17;;;9.77;;
15281;SDS011;7742;44.320;19.820;2024-03-25T14:13:08;10.70;;;10.20;;
15281;SDS011;7742;44.320;19.820;2024-03-25T14:15:34;10.90;;;10.40;;
15281;SDS011;7742;44.320;19.820;2024-03-25T14:17:59;10.63;;;10.13;;
15281;SDS011;7742;44.320;19.820;2024-03-25T14:20:25;10.57;;;10.17;;
15281;SDS011;7742;44.320;19.820;2024-03-25T14:22:52;9.93;;;9.53;;
15281;SDS011;7742;44.320;19.820;2024-03-25T14:25:18;11.10;;;10.60;;
15281;SDS011;7742;44.320;19.820;2024-03-25T14:27:44;10.60;;;10.20;;